Pucha Pucha, Argentina
Current Conditions -  °F | °C
As of 5:00 PM on Friday 24 Oct 2014 (Local Time) from SCAT Reporting Station
Few Clouds Few Clouds  
Wind Chill: 66°   Ceiling: Unl
Heat Index: 66°   Visibility: 6mi
Dew Point: 52°   Wind: 8mph
Humidity: 60%   Direction: 300°WNW
Pressure: 29.94"   Gusts: NA
Location:  28.34°S, 69.22°W
Report Text: SCAT 242000Z 30007KT 230V360 9999 FEW019 19/11 Q1014
Loading
Personal Weather Stations






























Interactive Weather Map New forecast layout! Learn more

10-Day Weather Forecast

Advertisements
Track Severe Weather on mobile